Aviation Digital Data Service (ADDS)

Output produced by METARs form (1326 UTC 27 July 2016)
found at http://www.aviationweather.gov/adds/metars/
 
KROW 271251Z 01004KT 10SM CLR 21/17 A3010 RMK AO2 SLP124 T02110172
KROW 271151Z 33004KT 10SM CLR 23/16 A3007 RMK AO2 SLP113 T02330161 10250 20222 53002
KROW 271051Z AUTO 00000KT 10SM CLR 23/17 A3006 RMK AO2 SLP109 T02280172
KROW 270951Z AUTO 22003KT 10SM CLR 23/17 A3004 RMK AO2 SLP103 T02330172
KROW 270851Z AUTO 25006KT 10SM BKN095 OVC110 24/17 A3007 RMK AO2 SLP108 T02440172 58005
KROW 270751Z AUTO 20003KT 10SM BKN090 BKN100 23/18 A3008 RMK AO2 SLP113 T02330178
KROW 270651Z AUTO 15004KT 10SM SCT090 24/17 A3008 RMK AO2 SLP116 T02390172 403390211
KROW 270551Z AUTO 16006KT 10SM CLR 25/17 A3008 RMK AO2 SLP117 T02500167 10317 20250 51016
KROW 270451Z AUTO 21005KT 10SM BKN100 26/16 A3007 RMK AO2 SLP113 T02560156
KROW 270351Z AUTO 19005KT 10SM CLR 28/14 A3006 RMK AO2 SLP111 T02780144
KROW 270251Z AUTO 19008KT 10SM CLR 29/14 A3003 RMK AO2 SLP100 T02890144 53008
KROW 270151Z 18004KT 10SM SCT120 30/14 A3002 RMK AO2 SLP098 T03000139
KROW 270051Z 21008KT 10SM CLR 31/14 A3000 RMK AO2 SLP091 T03060139
KROW 262351Z 27007KT 10SM CLR 32/15 A3001 RMK AO2 SLP091 T03170150 10339 20294 55012
KROW 262251Z 25007KT 10SM CLR 32/14 A3000 RMK AO2 SLP089 T03170139
KROW 262151Z 25019KT 10SM CLR 31/14 A3002 RMK AO2 PK WND 25028/2136 LTG DSNT SE AND SW SLP098 T03060144
KROW 262051Z 19006G15KT 10SM CLR 33/15 A3005 RMK AO2 LTG DSNT W SLP103 T03330150 56023
KROW 261951Z 10SM CLR 33/15 A3007 RMK AO2 SLP109 T03280150
KROW 261851Z 06006KT 10SM CLR 32/15 A3009 RMK AO2 SLP122 T03170150
KROW 261751Z 00000KT 10SM CLR 29/17 A3012 RMK AO2 SLP135 T02940167 10300 20211 58010
KROW 261651Z 05005KT 10SM CLR 28/17 A3014 RMK AO2 SLP138 T02780172
KROW 261551Z 06006KT 10SM CLR 26/18 A3015 RMK AO2 SLP140 T02560178
KROW 261451Z 03008KT 10SM CLR 24/17 A3016 RMK AO2 SLP144 T02390172 50006
KROW 261351Z 35007KT 10SM CLR 21/17 A3016 RMK AO2 SLP141 T02110172
KROW 271123Z 2712/2812 34005KT P6SM FEW150 
     FM271800 10008KT P6SM SCT100 
     FM272300 13010KT P6SM VCTS BKN090CB BKN150 
     FM280200 16008KT P6SM VCSH BKN090 
     FM280500 34005KT P6SM SCT150